Time;durP1;ratioP1;P1;durP2;ratioP2;P2;SDS_P1;SDS_P2;PMS_P1;PMS_P2;Temp;Humidity;BMP_temperature;BMP_pressure;BME280_temperature;BME280_humidity;BME280_pressure;Samples;Min_cycle;Max_cycle;Signal;HPM_P1;HPM_P2
2023/09/13 00:00:31;;;;;;;7.82;5.50;;;;;;;27.01;51.80;101394.84;4991216;28;20112;-35
2023/09/13 00:02:57;;;;;;;7.28;5.50;;;;;;;27.00;52.32;101402.16;4986176;28;20047;-35
2023/09/13 00:05:24;;;;;;;8.88;5.80;;;;;;;26.99;52.10;101394.22;4987547;28;20077;-35
2023/09/13 00:07:51;;;;;;;7.97;5.72;;;;;;;26.99;52.42;101394.22;4985695;28;20034;-35
2023/09/13 00:10:18;;;;;;;7.68;5.75;;;;;;;26.98;52.29;101395.25;4988972;28;20105;-35
2023/09/13 00:12:45;;;;;;;6.80;5.25;;;;;;;26.96;51.88;101390.00;4983358;28;20047;-35
2023/09/13 00:15:12;;;;;;;7.60;5.57;;;;;;;26.96;52.47;101394.59;4983645;28;20054;-35
2023/09/13 00:17:39;;;;;;;7.50;5.63;;;;;;;26.96;51.90;101398.16;4984066;28;20061;-34
2023/09/13 00:20:07;;;;;;;8.35;5.47;;;;;;;26.96;52.35;101391.88;4983411;28;20054;-35
2023/09/13 00:22:33;;;;;;;9.25;5.88;;;;;;;26.93;52.20;101390.38;4983511;28;20061;-35
2023/09/13 00:25:00;;;;;;;8.18;5.93;;;;;;;26.94;51.82;101394.81;4984957;28;20551;-35
2023/09/13 00:27:27;;;;;;;7.53;5.65;;;;;;;26.92;51.83;101391.44;4986446;28;20071;-35
2023/09/13 00:29:53;;;;;;;7.32;5.65;;;;;;;26.92;51.83;101388.72;4983566;28;20074;-35
2023/09/13 00:32:20;;;;;;;7.03;5.28;;;;;;;26.90;52.43;101393.53;4986390;28;20058;-35
2023/09/13 00:34:47;;;;;;;6.95;4.80;;;;;;;26.91;51.96;101389.75;4986354;28;20078;-35
2023/09/13 00:37:13;;;;;;;6.88;4.90;;;;;;;26.90;52.56;101388.09;4985824;28;20104;-35
2023/09/13 00:39:40;;;;;;;8.07;5.68;;;;;;;26.89;52.45;101389.09;4984203;28;20046;-35
2023/09/13 00:42:06;;;;;;;8.02;5.53;;;;;;;26.88;52.37;101384.72;4985575;28;20070;-35
2023/09/13 00:44:33;;;;;;;8.15;4.90;;;;;;;26.88;51.95;101387.44;4981762;28;20054;-35
2023/09/13 00:47:00;;;;;;;8.63;5.88;;;;;;;26.86;52.31;101389.53;4985676;28;20046;-35
2023/09/13 00:49:26;;;;;;;8.32;5.80;;;;;;;26.86;52.61;101389.53;4984797;28;20145;-35
2023/09/13 00:51:55;;;;;;;6.75;4.65;;;;;;;26.86;52.26;101394.97;4989414;28;20100;-35
2023/09/13 00:54:22;;;;;;;6.57;4.63;;;;;;;26.85;52.39;101392.44;4986356;28;20060;-35
2023/09/13 00:56:49;;;;;;;6.82;5.18;;;;;;;26.84;52.17;101397.03;4988218;28;20628;-35
2023/09/13 00:59:15;;;;;;;7.25;5.15;;;;;;;26.82;52.44;101390.97;4989361;28;20109;-35
2023/09/13 01:01:42;;;;;;;7.07;4.93;;;;;;;26.81;52.21;101395.56;4986093;28;20394;-35
2023/09/13 01:04:08;;;;;;;6.32;4.55;;;;;;;26.81;52.15;101397.41;4988341;28;20050;-35
2023/09/13 01:06:36;;;;;;;7.15;5.15;;;;;;;26.80;52.26;101401.19;4981989;28;20054;-35
2023/09/13 01:09:04;;;;;;;7.72;5.15;;;;;;;26.78;52.05;101395.97;4983191;28;21067;-35
2023/09/13 01:11:31;;;;;;;6.50;4.50;;;;;;;26.76;52.16;101389.88;4979662;28;20513;-35
2023/09/13 01:13:57;;;;;;;7.50;5.40;;;;;;;26.77;52.07;101387.97;4982335;28;20054;-34
2023/09/13 01:16:37;;;;;;;7.80;5.13;;;;;;;26.76;52.13;101386.31;4987636;28;20055;-35
2023/09/13 01:19:33;;;;;;;7.80;5.28;;;;;;;26.73;52.67;101375.81;4978760;28;20043;-35
2023/09/13 01:22:38;;;;;;;6.68;4.75;;;;;;;26.73;52.20;101384.81;4980561;28;20130;-34
2023/09/13 01:25:34;;;;;;;7.07;4.90;;;;;;;26.72;52.67;101385.84;4984045;28;20108;-35
2023/09/13 01:28:20;;;;;;;6.30;4.40;;;;;;;26.71;52.22;101384.19;4983615;28;20062;-35
2023/09/13 01:30:49;;;;;;;6.90;4.68;;;;;;;26.72;52.09;101385.03;4980716;28;20777;-35
2023/09/13 01:33:15;;;;;;;7.07;4.75;;;;;;;26.71;52.15;101386.06;4979902;28;21343;-35
2023/09/13 01:35:42;;;;;;;6.43;4.70;;;;;;;26.70;52.47;101381.69;4976927;28;20047;-35
2023/09/13 01:38:09;;;;;;;7.28;5.03;;;;;;;26.70;52.45;101382.50;4982391;28;20434;-35
2023/09/13 01:40:40;;;;;;;6.97;4.95;;;;;;;26.69;52.29;101379.97;4984420;28;20059;-35
2023/09/13 01:43:07;;;;;;;6.35;4.55;;;;;;;26.68;51.97;101379.13;4983562;28;20104;-35
2023/09/13 01:45:35;;;;;;;6.35;4.40;;;;;;;26.68;52.20;101378.31;4983098;28;20307;-35
2023/09/13 01:48:03;;;;;;;6.55;4.78;;;;;;;26.67;51.95;101376.63;4979624;28;20050;-35
2023/09/13 01:50:31;;;;;;;5.80;4.25;;;;;;;26.66;52.50;101375.78;4980691;28;20080;-35
2023/09/13 01:53:01;;;;;;;8.55;4.38;;;;;;;26.67;52.01;101384.78;4981708;28;20050;-35
2023/09/13 01:55:28;;;;;;;6.35;4.65;;;;;;;26.65;52.33;101379.53;4979951;28;20366;-35
2023/09/13 01:57:55;;;;;;;6.53;4.68;;;;;;;26.66;52.36;101378.50;4984926;28;20129;-35
2023/09/13 02:00:21;;;;;;;6.40;4.47;;;;;;;26.64;52.40;101372.41;4947795;28;1088536;-35
2023/09/13 02:02:48;;;;;;;7.50;4.80;;;;;;;26.65;52.44;101378.69;4988739;28;20148;-35
2023/09/13 02:05:14;;;;;;;6.25;4.25;;;;;;;26.65;52.06;101378.69;4983433;28;20054;-34
2023/09/13 02:07:41;;;;;;;5.95;4.50;;;;;;;26.63;52.22;101376.19;4985718;28;20073;-35
2023/09/13 02:10:08;;;;;;;6.95;4.68;;;;;;;26.64;52.42;101371.56;4983745;28;20097;-34
2023/09/13 02:12:34;;;;;;;6.03;4.38;;;;;;;26.63;52.30;101375.34;4983830;28;20051;-34
2023/09/13 02:15:01;;;;;;;4.90;3.88;;;;;;;26.64;52.38;101379.72;4981359;28;20504;-34
2023/09/13 02:17:28;;;;;;;5.18;3.90;;;;;;;26.63;52.49;101386.22;4980460;28;20057;-35
2023/09/13 02:19:54;;;;;;;5.95;4.43;;;;;;;26.61;52.43;101389.13;4983910;28;20062;-35
2023/09/13 02:22:21;;;;;;;5.80;3.97;;;;;;;26.61;52.31;101391.84;4980559;28;20140;-34
2023/09/13 02:24:47;;;;;;;4.55;4.07;;;;;;;26.61;52.48;101393.72;4979881;28;20444;-35
2023/09/13 02:27:14;;;;;;;5.57;4.10;;;;;;;26.60;52.33;101387.44;4982477;28;20054;-34
2023/09/13 02:29:41;;;;;;;5.25;4.05;;;;;;;26.60;52.42;101392.03;4983292;28;20141;-34
2023/09/13 02:32:07;;;;;;;5.50;3.88;;;;;;;26.60;52.31;101395.59;4984715;28;20137;-35
2023/09/13 02:34:34;;;;;;;5.53;4.40;;;;;;;26.60;52.16;101392.03;4982168;28;20121;-35
2023/09/13 02:37:00;;;;;;;5.57;4.20;;;;;;;26.57;52.16;101394.13;4977412;28;20129;-35
2023/09/13 02:39:33;;;;;;;5.70;4.40;;;;;;;26.56;52.25;101395.16;4981236;28;20050;-34
2023/09/13 02:42:05;;;;;;;5.78;4.50;;;;;;;26.56;52.22;101408.75;4983054;28;20050;-35
2023/09/13 02:44:33;;;;;;;4.60;3.70;;;;;;;26.56;52.20;101407.91;4980693;28;20061;-35
2023/09/13 02:47:00;;;;;;;6.32;4.22;;;;;;;26.55;52.24;101408.94;4984035;28;20073;-35
2023/09/13 02:49:27;;;;;;;5.65;4.13;;;;;;;26.53;52.20;101409.16;4980653;28;20041;-35
2023/09/13 02:51:55;;;;;;;5.53;4.18;;;;;;;26.54;51.98;101407.28;4983062;28;20188;-35
2023/09/13 02:54:21;;;;;;;5.38;4.18;;;;;;;26.53;52.37;101406.44;4980298;28;20082;-35
2023/09/13 02:56:49;;;;;;;5.50;4.13;;;;;;;26.52;52.44;101395.75;4982590;28;20050;-35
2023/09/13 02:59:16;;;;;;;5.50;3.92;;;;;;;26.50;52.38;101387.78;4982561;28;21806;-35
2023/09/13 03:01:43;;;;;;;5.65;4.10;;;;;;;26.49;52.23;101391.56;4984172;28;20345;-34
2023/09/13 03:04:11;;;;;;;5.63;3.97;;;;;;;26.50;52.33;101403.28;4981609;28;20354;-34
2023/09/13 03:06:41;;;;;;;5.75;3.55;;;;;;;26.47;52.33;101401.78;5014858;28;20046;-35
2023/09/13 03:09:07;;;;;;;5.35;4.05;;;;;;;26.48;52.33;101402.63;4983945;28;20054;-36
2023/09/13 03:11:35;;;;;;;5.35;3.75;;;;;;;26.46;52.27;101405.53;4984001;28;20114;-35
2023/09/13 03:14:03;;;;;;;5.82;4.05;;;;;;;26.46;52.32;101408.25;4983249;28;20513;-35
2023/09/13 03:16:30;;;;;;;5.40;3.85;;;;;;;26.45;52.37;101401.13;4983211;28;20125;-35
2023/09/13 03:18:57;;;;;;;5.30;3.70;;;;;;;26.44;52.34;101396.69;4980248;28;20092;-35
2023/09/13 03:21:24;;;;;;;5.70;4.00;;;;;;;26.43;52.56;101402.34;4981992;28;20054;-35
2023/09/13 03:23:51;;;;;;;5.30;3.65;;;;;;;26.42;52.44;101398.78;4982406;28;20054;-35
2023/09/13 03:26:20;;;;;;;5.47;3.90;;;;;;;26.41;52.45;101402.50;4982024;28;20392;-34
2023/09/13 03:28:53;;;;;;;5.45;3.75;;;;;;;26.40;52.48;101403.56;4981206;28;20138;-35
2023/09/13 03:31:22;;;;;;;4.70;3.40;;;;;;;26.40;52.16;101403.56;4986383;28;20395;-35
2023/09/13 03:33:51;;;;;;;5.03;3.38;;;;;;;26.40;52.20;101408.16;4980451;28;20110;-36
2023/09/13 03:36:18;;;;;;;5.07;3.65;;;;;;;26.40;52.43;101411.72;4981021;28;20054;-35
2023/09/13 03:38:46;;;;;;;5.57;3.72;;;;;;;26.40;52.23;101410.88;4984295;28;20042;-35
2023/09/13 03:41:16;;;;;;;5.45;3.42;;;;;;;26.38;52.29;101413.81;4979813;28;20054;-35
2023/09/13 03:43:42;;;;;;;4.57;3.45;;;;;;;26.39;52.55;101411.91;4980683;28;20393;-35
2023/09/13 03:46:09;;;;;;;6.88;3.42;;;;;;;26.37;52.31;101412.09;4979174;28;20156;-35
2023/09/13 03:48:38;;;;;;;5.32;3.50;;;;;;;26.38;52.29;101410.25;4981181;28;20057;-36
2023/09/13 03:51:07;;;;;;;6.40;3.90;;;;;;;26.38;52.35;101413.81;4983316;28;20050;-35
2023/09/13 03:53:34;;;;;;;4.82;3.42;;;;;;;26.37;52.44;101409.38;4981425;28;20053;-35
2023/09/13 03:56:02;;;;;;;5.22;3.75;;;;;;;26.37;52.40;101406.66;4980862;28;20100;-35
2023/09/13 03:58:29;;;;;;;6.18;3.92;;;;;;;26.37;52.27;101409.38;4980544;28;20141;-35
2023/09/13 04:00:56;;;;;;;3.67;2.78;;;;;;;26.36;52.50;101420.47;4978453;28;20053;-36
2023/09/13 04:03:24;;;;;;;4.95;3.42;;;;;;;26.37;52.41;101413.97;4982546;28;20635;-35
2023/09/13 04:05:50;;;;;;;3.95;2.95;;;;;;;26.36;52.55;101409.59;4982731;28;20046;-35
2023/09/13 04:08:17;;;;;;;4.75;3.38;;;;;;;26.34;52.52;101407.06;4983752;28;20047;-36
2023/09/13 04:10:44;;;;;;;5.38;3.58;;;;;;;26.36;52.45;101412.31;4980834;28;20125;-35
2023/09/13 04:13:11;;;;;;;5.05;3.58;;;;;;;26.34;52.43;101409.78;4981203;28;20058;-36
2023/09/13 04:15:38;;;;;;;4.72;3.25;;;;;;;26.33;52.40;101403.53;4977565;28;20222;-35
2023/09/13 04:18:04;;;;;;;4.28;3.10;;;;;;;26.33;52.36;101408.97;4982984;28;20051;-35
2023/09/13 04:20:31;;;;;;;4.60;3.22;;;;;;;26.33;52.40;101408.09;4980718;28;20431;-35
2023/09/13 04:23:01;;;;;;;5.22;3.17;;;;;;;26.33;52.21;101402.66;4981381;28;20065;-35
2023/09/13 04:25:28;;;;;;;4.95;3.28;;;;;;;26.31;52.38;101413.72;4981547;28;20362;-35
2023/09/13 04:27:55;;;;;;;5.05;3.40;;;;;;;26.31;52.37;101402.84;4979429;28;20138;-35
2023/09/13 04:30:22;;;;;;;4.22;3.05;;;;;;;26.31;52.36;101410.19;4977242;28;20501;-35
2023/09/13 04:32:48;;;;;;;4.30;3.00;;;;;;;26.29;52.52;101410.38;4984274;28;20470;-35
2023/09/13 04:35:15;;;;;;;4.07;3.05;;;;;;;26.29;52.42;101410.38;4983834;28;20050;-35
2023/09/13 04:37:42;;;;;;;4.78;3.08;;;;;;;26.29;52.45;101417.66;4983573;28;20054;-35
2023/09/13 04:40:09;;;;;;;4.22;2.95;;;;;;;26.27;52.08;101412.44;4985756;28;20100;-35
2023/09/13 04:42:37;;;;;;;4.47;3.13;;;;;;;26.27;52.36;101409.72;4986071;28;20516;-35
2023/09/13 04:45:04;;;;;;;5.35;3.33;;;;;;;26.28;52.47;101416.00;4988182;28;20490;-35
2023/09/13 04:47:31;;;;;;;4.55;2.80;;;;;;;26.27;52.35;101419.75;4986443;28;20097;-35
2023/09/13 04:49:58;;;;;;;4.28;3.47;;;;;;;26.24;52.51;101420.97;4985182;28;20125;-35
2023/09/13 04:52:24;;;;;;;6.25;4.38;;;;;;;26.25;52.62;101419.09;4985785;28;20493;-35
2023/09/13 04:54:51;;;;;;;5.95;4.20;;;;;;;26.24;52.40;101425.56;4985170;28;20074;-35
2023/09/13 04:57:18;;;;;;;7.13;4.88;;;;;;;26.23;52.47;101424.72;4975806;28;20408;-35
2023/09/13 04:59:48;;;;;;;7.00;4.70;;;;;;;26.24;52.41;101431.84;4983266;28;20319;-35
2023/09/13 05:02:15;;;;;;;7.03;5.00;;;;;;;26.24;52.45;101428.28;4984048;28;20061;-35
2023/09/13 05:04:42;;;;;;;9.65;5.38;;;;;;;26.23;52.60;101427.44;4981384;28;20062;-35
2023/09/13 05:07:09;;;;;;;8.52;6.05;;;;;;;26.22;52.71;101436.66;4980867;28;20055;-35
2023/09/13 05:09:37;;;;;;;9.43;5.70;;;;;;;26.22;52.77;101438.53;4980859;28;20413;-35
2023/09/13 05:12:04;;;;;;;7.60;5.68;;;;;;;26.22;52.70;101447.50;4983808;28;20101;-36
2023/09/13 05:14:31;;;;;;;8.50;6.03;;;;;;;26.21;52.75;101447.69;4981239;28;20054;-35
2023/09/13 05:16:58;;;;;;;9.20;5.88;;;;;;;26.20;52.60;101446.00;4980942;28;20043;-36
2023/09/13 05:19:25;;;;;;;9.30;6.22;;;;;;;26.20;52.67;101467.75;4982068;28;20042;-35
2023/09/13 05:21:51;;;;;;;9.13;6.10;;;;;;;26.21;52.87;101469.44;4988307;28;20491;-36
2023/09/13 05:24:18;;;;;;;8.45;6.22;;;;;;;26.20;52.89;101493.06;4986027;28;20089;-36
2023/09/13 05:26:45;;;;;;;7.75;5.45;;;;;;;26.19;52.78;101510.41;4982891;28;20137;-36
2023/09/13 05:29:11;;;;;;;8.95;5.95;;;;;;;26.18;52.63;101513.31;4983762;28;20054;-36
2023/09/13 05:31:38;;;;;;;7.18;5.50;;;;;;;26.17;52.71;101514.31;4984511;28;20458;-34
2023/09/13 05:34:05;;;;;;;8.32;5.28;;;;;;;26.17;52.92;101514.31;4983821;28;20450;-36
2023/09/13 05:36:31;;;;;;;10.05;5.45;;;;;;;26.15;52.85;101525.41;4981587;28;20050;-36
2023/09/13 05:38:58;;;;;;;8.85;5.30;;;;;;;26.14;52.78;101523.72;4978623;28;20134;-36
2023/09/13 05:41:24;;;;;;;7.25;4.20;;;;;;;26.13;52.89;101532.03;4984931;28;20058;-36
2023/09/13 05:43:51;;;;;;;9.35;4.95;;;;;;;26.12;52.84;101541.25;4983009;28;20046;-36
2023/09/13 05:46:18;;;;;;;5.85;4.53;;;;;;;26.10;52.86;101538.72;4988476;28;20054;-36
2023/09/13 05:48:45;;;;;;;5.78;4.25;;;;;;;26.08;52.89;101530.75;4984878;28;20057;-35
2023/09/13 05:51:11;;;;;;;7.45;4.30;;;;;;;26.06;53.04;101543.69;4985700;28;20481;-36
2023/09/13 05:53:38;;;;;;;6.60;3.95;;;;;;;26.06;52.90;101551.84;4982410;28;20239;-36
2023/09/13 05:56:04;;;;;;;7.85;4.28;;;;;;;26.04;52.83;101567.47;4981934;28;20057;-36
2023/09/13 05:58:31;;;;;;;7.40;4.07;;;;;;;26.03;52.96;101559.53;4982226;28;20061;-36
2023/09/13 06:00:59;;;;;;;7.82;3.83;;;;;;;26.01;52.86;101567.88;4982899;28;20054;-36
2023/09/13 06:03:26;;;;;;;6.38;3.13;;;;;;;26.00;52.64;101570.75;4979228;28;20336;-36
2023/09/13 06:05:52;;;;;;;5.15;3.17;;;;;;;25.98;52.63;101584.53;4981108;28;20050;-35
2023/09/13 06:08:19;;;;;;;5.63;3.63;;;;;;;25.98;52.54;101589.16;4984265;28;20125;-36
2023/09/13 06:10:46;;;;;;;5.22;3.00;;;;;;;25.96;52.56;101589.31;4984891;28;20532;-35
2023/09/13 06:13:15;;;;;;;4.53;2.83;;;;;;;25.96;52.71;101597.47;4978865;28;20053;-36
2023/09/13 06:15:42;;;;;;;4.75;3.10;;;;;;;25.95;52.63;101603.09;4985499;28;20061;-35
2023/09/13 06:18:09;;;;;;;5.45;2.90;;;;;;;25.94;52.53;101609.56;4982125;28;20054;-36
2023/09/13 06:20:36;;;;;;;5.57;3.22;;;;;;;25.93;52.70;101608.72;4986712;28;20049;-36
2023/09/13 06:23:02;;;;;;;4.47;2.80;;;;;;;25.92;52.57;101611.59;4983354;28;20129;-36
2023/09/13 06:25:29;;;;;;;4.13;2.25;;;;;;;25.92;52.48;101623.31;4985606;28;20340;-35
2023/09/13 06:27:56;;;;;;;5.05;2.00;;;;;;;25.91;52.42;101627.06;4976299;28;20054;-36
2023/09/13 06:30:22;;;;;;;6.45;2.25;;;;;;;25.90;52.41;101625.38;4984707;28;20092;-35
2023/09/13 06:32:49;;;;;;;3.83;2.03;;;;;;;25.89;52.41;101625.56;4985163;28;20298;-36
2023/09/13 06:35:37;;;;;;;4.75;2.00;;;;;;;25.88;52.42;101632.88;4979103;28;20081;-36
2023/09/13 06:38:04;;;;;;;3.03;2.05;;;;;;;25.87;52.27;101646.66;4982079;28;20375;-36
2023/09/13 06:40:33;;;;;;;3.55;1.88;;;;;;;25.85;52.46;101663.13;4979859;28;20046;-35
2023/09/13 06:43:02;;;;;;;3.08;1.73;;;;;;;25.85;52.03;101665.84;4979732;28;20143;-36
2023/09/13 06:45:29;;;;;;;1.98;1.50;;;;;;;25.83;52.15;101655.16;4983416;28;20053;-35
2023/09/13 06:47:57;;;;;;;31.98;2.83;;;;;;;25.83;52.10;101659.75;4982290;28;20496;-36
2023/09/13 06:50:25;;;;;;;4.30;2.00;;;;;;;25.83;52.27;101660.59;4985480;28;20081;-35
2023/09/13 06:53:12;;;;;;;3.35;1.85;;;;;;;25.85;52.27;101674.00;4983872;28;20067;-36
2023/09/13 06:55:58;;;;;;;3.55;1.98;;;;;;;25.84;51.90;101677.72;4983559;28;20058;-35
2023/09/13 06:58:30;;;;;;;4.88;2.05;;;;;;;25.84;51.94;101696.75;4978354;28;20065;-36
2023/09/13 07:00:59;;;;;;;6.57;2.25;;;;;;;25.83;51.91;101695.91;4975916;28;20057;-35
2023/09/13 07:03:29;;;;;;;5.35;2.25;;;;;;;25.83;51.83;101701.34;4982301;28;20101;-36
2023/09/13 07:06:00;;;;;;;4.88;1.73;;;;;;;25.83;51.62;101711.34;4978817;28;20050;-34
2023/09/13 07:08:27;;;;;;;8.35;2.22;;;;;;;25.82;51.80;101723.25;4977453;28;20046;-36
2023/09/13 07:10:53;;;;;;;4.43;2.53;;;;;;;25.81;51.69;101710.72;4980673;28;20058;-35
2023/09/13 07:13:20;;;;;;;7.47;1.80;;;;;;;25.80;51.49;101719.88;4979764;28;20144;-35
2023/09/13 07:15:47;;;;;;;6.45;2.13;;;;;;;25.78;51.58;101717.34;4974529;28;20046;-34
2023/09/13 07:18:14;;;;;;;5.45;1.73;;;;;;;25.77;51.56;101722.91;4973388;28;20105;-34
2023/09/13 07:20:41;;;;;;;4.10;1.70;;;;;;;25.75;51.67;101717.66;4982207;28;20614;-34
2023/09/13 07:23:09;;;;;;;4.43;2.25;;;;;;;25.74;51.29;101728.72;4981611;28;20050;-33
2023/09/13 07:25:36;;;;;;;7.25;1.83;;;;;;;25.74;51.36;101729.56;4980478;28;20078;-34
2023/09/13 07:28:02;;;;;;;5.28;1.70;;;;;;;25.73;51.36;101732.44;4988291;28;20072;-33
2023/09/13 07:30:29;;;;;;;5.03;2.38;;;;;;;25.72;51.34;101736.19;4984040;28;20105;-33
2023/09/13 07:32:56;;;;;;;3.08;1.52;;;;;;;25.71;51.22;101740.78;4981271;28;20442;-33
2023/09/13 07:35:23;;;;;;;4.68;1.95;;;;;;;25.72;51.33;101742.47;4984177;28;20338;-33
2023/09/13 07:37:50;;;;;;;3.75;1.50;;;;;;;25.72;51.34;101747.06;4984304;28;20496;-33
2023/09/13 07:40:17;;;;;;;3.78;1.85;;;;;;;25.73;51.44;101751.47;4984846;28;20129;-33
2023/09/13 07:42:43;;;;;;;2.58;1.45;;;;;;;25.74;51.18;101756.72;4979406;28;20449;-33
2023/09/13 07:45:10;;;;;;;4.95;1.80;;;;;;;25.75;51.34;101758.41;4985569;28;20054;-33
2023/09/13 07:47:36;;;;;;;4.07;1.55;;;;;;;25.76;51.32;101759.25;4980618;28;20131;-33
2023/09/13 07:50:04;;;;;;;5.65;1.85;;;;;;;25.77;51.49;101756.41;4986769;28;20343;-33
2023/09/13 07:52:30;;;;;;;3.90;2.00;;;;;;;25.78;51.26;101757.25;4979590;28;20674;-34
2023/09/13 07:55:13;;;;;;;5.10;1.52;;;;;;;25.80;51.25;101761.44;4984807;28;20137;-34
2023/09/13 07:57:40;;;;;;;3.53;1.52;;;;;;;25.80;51.10;101766.03;4985688;28;20548;-34
2023/09/13 08:00:07;;;;;;;3.47;1.50;;;;;;;25.81;51.12;101770.47;4981738;28;20399;-35
2023/09/13 08:02:33;;;;;;;4.18;1.50;;;;;;;25.82;51.08;101764.00;4978662;28;20050;-34
2023/09/13 08:05:00;;;;;;;4.40;1.20;;;;;;;25.82;51.25;101755.84;4980609;28;20102;-34
2023/09/13 08:07:27;;;;;;;3.63;1.33;;;;;;;25.82;51.37;101753.97;4980850;28;20677;-34
2023/09/13 08:09:53;;;;;;;3.42;2.00;;;;;;;25.84;50.97;101751.91;5015324;28;20096;-34
2023/09/13 08:12:20;;;;;;;2.45;1.35;;;;;;;25.86;50.66;101756.31;4985216;28;20411;-34
2023/09/13 08:14:47;;;;;;;3.35;1.40;;;;;;;25.88;50.80;101767.84;4984813;28;20508;-34
2023/09/13 08:17:13;;;;;;;2.85;1.63;;;;;;;25.89;50.76;101767.69;4979710;28;20883;-34
2023/09/13 08:19:40;;;;;;;2.65;1.10;;;;;;;25.92;50.79;101785.47;4985964;28;20050;-34
2023/09/13 08:22:08;;;;;;;2.88;0.93;;;;;;;25.92;50.79;101791.72;4980674;28;20499;-35
2023/09/13 08:24:35;;;;;;;3.38;1.52;;;;;;;25.95;50.61;101814.97;4982895;28;20052;-34
2023/09/13 08:27:01;;;;;;;6.10;1.63;;;;;;;25.97;50.72;101824.66;4985947;28;20084;-34
2023/09/13 08:29:28;;;;;;;1.63;1.08;;;;;;;25.99;50.48;101846.19;4988184;28;20047;-35
2023/09/13 08:31:54;;;;;;;3.00;1.23;;;;;;;26.00;50.49;101848.72;4988010;28;20386;-34
2023/09/13 08:34:22;;;;;;;4.70;1.30;;;;;;;26.02;50.33;101848.53;4979917;28;20054;-34
2023/09/13 08:36:53;;;;;;;1.88;1.15;;;;;;;26.03;50.33;101852.94;4980862;28;20078;-34
2023/09/13 08:39:20;;;;;;;5.78;1.60;;;;;;;26.05;50.24;101850.88;4982087;28;20050;-34
2023/09/13 08:41:50;;;;;;;3.28;1.10;;;;;;;26.06;50.33;101845.28;4985910;28;20081;-34
2023/09/13 08:44:22;;;;;;;5.47;1.42;;;;;;;26.07;50.25;101865.13;4985675;28;20050;-36
2023/09/13 08:46:50;;;;;;;3.03;1.30;;;;;;;26.09;50.19;101879.38;4983559;28;20046;-36
2023/09/13 08:49:18;;;;;;;2.45;0.98;;;;;;;26.11;50.19;101887.34;4983816;28;20058;-36
2023/09/13 08:51:46;;;;;;;3.55;1.10;;;;;;;26.12;49.97;101883.59;4981022;28;20442;-36
2023/09/13 08:54:13;;;;;;;2.35;1.25;;;;;;;26.14;49.98;101876.13;4981668;28;20074;-36
2023/09/13 08:56:43;;;;;;;1.67;0.98;;;;;;;26.16;49.95;101890.38;4984457;28;20167;-36
2023/09/13 08:59:10;;;;;;;3.15;1.00;;;;;;;26.16;49.74;101896.66;4983399;28;20782;-36
2023/09/13 09:01:37;;;;;;;2.85;1.10;;;;;;;26.16;50.12;101904.78;4990120;28;20093;-36
2023/09/13 09:04:04;;;;;;;2.53;1.30;;;;;;;26.18;50.07;101910.06;4990456;28;20509;-36
2023/09/13 09:06:32;;;;;;;1.65;0.93;;;;;;;26.20;50.19;101918.88;4986031;28;20046;-36
2023/09/13 09:09:00;;;;;;;3.13;1.30;;;;;;;26.22;50.09;101922.25;4983343;28;20476;-36
2023/09/13 09:11:29;;;;;;;3.33;1.33;;;;;;;26.22;50.01;101923.09;4982540;28;20078;-35
2023/09/13 09:13:58;;;;;;;2.20;1.25;;;;;;;26.26;50.58;101942.63;4983749;28;20061;-36
2023/09/13 09:16:26;;;;;;;2.80;1.30;;;;;;;26.27;50.10;101934.28;4984134;28;20562;-36
2023/09/13 09:18:57;;;;;;;1.58;0.98;;;;;;;26.29;49.78;101931.34;4984183;28;20431;-36
2023/09/13 09:21:25;;;;;;;1.90;1.02;;;;;;;26.31;49.59;101937.47;4988152;28;20096;-36
2023/09/13 09:23:52;;;;;;;2.45;1.15;;;;;;;26.33;49.62;101936.28;4985120;28;20810;-36
2023/09/13 09:26:20;;;;;;;1.67;1.17;;;;;;;26.36;49.60;101947.78;4986031;28;20081;-36
2023/09/13 09:28:46;;;;;;;4.13;1.00;;;;;;;26.38;49.43;101940.31;4984451;28;20046;-36
2023/09/13 09:31:19;;;;;;;2.63;1.33;;;;;;;26.41;49.52;101951.66;4990003;28;20050;-36
2023/09/13 09:33:46;;;;;;;2.17;1.10;;;;;;;26.43;49.02;101941.44;4984519;28;20081;-36
2023/09/13 09:36:13;;;;;;;3.35;1.10;;;;;;;26.48;48.98;101946.38;4991080;28;20058;-36
2023/09/13 09:38:43;;;;;;;2.05;1.13;;;;;;;26.51;49.10;101946.84;4989323;28;20054;-36
2023/09/13 09:41:10;;;;;;;1.85;1.10;;;;;;;26.57;48.73;101939.81;4984868;28;20054;-36
2023/09/13 09:43:37;;;;;;;2.95;1.20;;;;;;;26.62;48.26;101945.56;4983401;28;20046;-36
2023/09/13 09:46:05;;;;;;;2.63;1.00;;;;;;;26.67;48.91;101934.13;4982112;28;20134;-36
2023/09/13 09:48:32;;;;;;;2.85;1.13;;;;;;;26.70;48.95;101950.94;4981185;28;20412;-37
2023/09/13 09:50:59;;;;;;;5.55;1.10;;;;;;;26.74;48.49;101954.97;4979371;28;20351;-36
2023/09/13 09:53:26;;;;;;;4.03;1.20;;;;;;;26.77;48.46;101959.19;4977478;28;20070;-36
2023/09/13 09:55:53;;;;;;;1.88;1.05;;;;;;;26.79;48.46;101968.84;4981563;28;20101;-36
2023/09/13 09:58:22;;;;;;;1.88;1.02;;;;;;;26.81;48.53;101972.25;4980525;28;20053;-36
2023/09/13 10:00:50;;;;;;;1.95;1.20;;;;;;;26.85;48.43;101961.81;4979494;28;20046;-36
2023/09/13 10:03:18;;;;;;;2.15;1.02;;;;;;;26.85;48.43;101969.97;4980193;28;20054;-36
2023/09/13 10:06:08;;;;;;;2.80;1.17;;;;;;;26.85;48.19;101966.41;4981494;28;20051;-36
2023/09/13 10:08:42;;;;;;;5.00;1.42;;;;;;;26.85;48.11;101978.13;4985164;28;20054;-36
2023/09/13 10:11:15;;;;;;;2.20;1.20;;;;;;;26.88;47.85;101982.38;4986639;28;20051;-36
2023/09/13 10:13:46;;;;;;;1.55;1.05;;;;;;;26.89;47.92;101984.06;4983090;28;20142;-36
2023/09/13 10:16:15;;;;;;;3.55;1.35;;;;;;;26.93;47.90;101991.66;4981415;28;20386;-36
2023/09/13 10:18:48;;;;;;;4.70;1.30;;;;;;;26.95;47.91;101984.19;4977846;28;20081;-37
2023/09/13 10:21:25;;;;;;;3.35;1.08;;;;;;;26.99;47.96;101985.50;4978566;28;20461;-37
2023/09/13 10:24:01;;;;;;;2.28;0.90;;;;;;;27.04;47.96;102002.09;5013018;28;20054;-36
2023/09/13 10:26:33;;;;;;;2.55;1.23;;;;;;;27.05;47.88;101995.63;4982608;28;20133;-36
2023/09/13 10:29:11;;;;;;;2.10;0.98;;;;;;;27.07;47.54;102009.91;4978586;28;20521;-36
2023/09/13 10:31:43;;;;;;;2.33;1.10;;;;;;;27.07;47.96;102007.19;4986215;28;20100;-36
2023/09/13 10:34:25;;;;;;;3.20;1.20;;;;;;;27.07;47.72;102009.91;4982611;28;20460;-37
2023/09/13 10:37:10;;;;;;;1.95;1.08;;;;;;;27.07;47.86;102019.94;4979013;28;20050;-37
2023/09/13 10:39:44;;;;;;;4.00;1.13;;;;;;;27.06;47.51;102031.88;4977380;28;20082;-36
2023/09/13 10:42:11;;;;;;;3.50;0.95;;;;;;;27.05;47.01;102041.88;4977816;28;20078;-36
2023/09/13 10:44:38;;;;;;;3.78;1.20;;;;;;;27.03;46.86;102033.06;4977563;28;20485;-37
2023/09/13 10:47:06;;;;;;;2.53;1.13;;;;;;;27.03;47.22;102043.97;4977263;28;20050;-36
2023/09/13 10:49:36;;;;;;;1.52;0.90;;;;;;;27.01;47.42;102046.00;4977954;28;20046;-36
2023/09/13 10:52:05;;;;;;;1.73;0.90;;;;;;;27.02;47.29;102042.28;4979642;28;20304;-36
2023/09/13 10:54:32;;;;;;;2.00;1.08;;;;;;;27.01;47.44;102037.00;4975433;28;20055;-36
2023/09/13 10:56:58;;;;;;;3.80;1.00;;;;;;;26.99;47.35;102039.91;4976917;28;20062;-36
2023/09/13 10:59:25;;;;;;;3.70;1.25;;;;;;;26.99;47.25;102047.25;4973130;28;20062;-36
2023/09/13 11:01:52;;;;;;;3.42;1.20;;;;;;;26.98;47.58;102049.13;4981878;28;20038;-36
2023/09/13 11:04:20;;;;;;;1.92;1.00;;;;;;;26.98;47.42;102054.56;4980703;28;20042;-36
2023/09/13 11:06:48;;;;;;;2.97;1.08;;;;;;;26.97;47.48;102057.44;4981853;28;20058;-36
2023/09/13 11:09:17;;;;;;;1.10;0.75;;;;;;;26.97;47.39;102065.59;4979846;28;20097;-36
2023/09/13 11:11:53;;;;;;;1.88;1.00;;;;;;;26.95;47.37;102060.38;4984641;28;20046;-36
2023/09/13 11:14:28;;;;;;;1.60;1.00;;;;;;;26.94;47.39;102069.56;4983617;28;20046;-36
2023/09/13 11:16:57;;;;;;;2.42;1.27;;;;;;;26.95;47.12;102067.69;4984078;28;20128;-36
2023/09/13 11:19:27;;;;;;;2.88;1.10;;;;;;;26.93;47.27;102070.56;4978503;28;20130;-36
2023/09/13 11:22:00;;;;;;;3.90;1.50;;;;;;;26.93;47.07;102067.00;4978209;28;20047;-36
2023/09/13 11:24:35;;;;;;;3.35;1.40;;;;;;;26.92;47.39;102077.03;4981918;28;20354;-36
2023/09/13 11:27:23;;;;;;;3.97;1.38;;;;;;;26.93;47.48;102072.44;4979996;28;20381;-36
2023/09/13 11:29:53;;;;;;;3.22;1.13;;;;;;;26.93;47.64;102086.91;4979995;28;20386;-36